Time;durP1;ratioP1;P1;durP2;ratioP2;P2;SDS_P1;SDS_P2;PMS_P1;PMS_P2;Temp;Humidity;BMP_temperature;BMP_pressure;BME280_temperature;BME280_humidity;BME280_pressure;Samples;Min_cycle;Max_cycle;Signal;HPM_P1;HPM_P2
2022/07/13 00:00:04;;;;;;;77.60;50.15;;;;;;;22.60;67.78;99964.16;5096100;28;20060;-80
2022/07/13 00:02:30;;;;;;;93.53;59.22;;;;;;;22.63;67.92;99964.66;5096112;28;20043;-79
2022/07/13 00:04:56;;;;;;;98.25;58.53;;;;;;;22.65;68.04;99956.31;5095945;28;20500;-79
2022/07/13 00:07:22;;;;;;;84.65;61.17;;;;;;;22.67;67.67;99954.22;5077579;28;20406;-80
2022/07/13 00:09:47;;;;;;;115.47;61.90;;;;;;;22.70;67.53;99962.88;5077739;28;20046;-79
2022/07/13 00:12:13;;;;;;;100.28;60.92;;;;;;;22.69;67.50;99944.84;5060942;28;20097;-79
2022/07/13 00:14:39;;;;;;;92.60;56.15;;;;;;;22.79;67.27;99958.19;5060964;28;20059;-79
2022/07/13 00:17:05;;;;;;;93.07;57.80;;;;;;;22.86;67.37;99955.56;5077712;28;20083;-78
2022/07/13 00:19:31;;;;;;;94.57;65.63;;;;;;;22.90;67.08;99959.59;5060927;28;20406;-79
2022/07/13 00:21:57;;;;;;;106.22;63.35;;;;;;;22.87;67.07;99944.47;5095530;28;20440;-81
2022/07/13 00:24:23;;;;;;;92.85;63.58;;;;;;;22.94;66.66;99952.75;5095233;28;20040;-80
2022/07/13 00:26:48;;;;;;;98.68;61.80;;;;;;;22.93;66.88;99946.47;5095416;28;20050;-79
2022/07/13 00:29:15;;;;;;;100.03;60.58;;;;;;;22.94;66.65;99950.03;5077351;28;20140;-79
2022/07/13 00:31:42;;;;;;;91.43;57.35;;;;;;;23.05;66.63;99956.91;5044039;28;20072;-78
2022/07/13 00:34:08;;;;;;;90.25;53.90;;;;;;;23.08;66.52;99953.81;5095390;28;20048;-79
2022/07/13 00:36:34;;;;;;;94.97;57.00;;;;;;;23.12;66.22;99957.84;5095293;28;20055;-78
2022/07/13 00:39:00;;;;;;;84.10;56.60;;;;;;;23.16;66.27;99949.09;5077544;28;20051;-79
2022/07/13 00:41:26;;;;;;;102.78;74.25;;;;;;;23.23;66.00;99946.47;5076861;28;20036;-80
2022/07/13 00:43:52;;;;;;;113.80;70.35;;;;;;;23.29;65.91;99953.88;5077193;28;20166;-80
2022/07/13 00:46:18;;;;;;;110.20;71.15;;;;;;;23.33;65.73;99952.47;5077170;28;20051;-81
2022/07/13 00:48:44;;;;;;;142.13;98.38;;;;;;;23.26;65.36;99948.81;5060359;28;20036;-79
2022/07/13 00:51:10;;;;;;;127.82;89.82;;;;;;;23.27;65.67;99958.69;5095241;28;20449;-79
2022/07/13 00:53:38;;;;;;;112.40;77.18;;;;;;;23.18;65.70;99962.56;5095372;28;20069;-81
2022/07/13 00:56:05;;;;;;;120.80;73.35;;;;;;;23.08;65.76;99957.38;5060228;28;20048;-80
2022/07/13 00:58:32;;;;;;;107.57;58.28;;;;;;;23.07;66.06;99955.69;5060270;28;20071;-80
2022/07/13 01:00:58;;;;;;;138.60;57.22;;;;;;;23.08;66.08;99948.34;5059967;28;20047;-79
2022/07/13 01:03:25;;;;;;;118.10;50.33;;;;;;;23.13;65.87;99933.13;5076783;28;20561;-80
2022/07/13 01:05:52;;;;;;;116.53;49.88;;;;;;;23.23;65.76;99943.72;5059892;28;20127;-81
2022/07/13 01:08:20;;;;;;;126.22;49.25;;;;;;;23.26;65.69;99948.81;5076394;28;20467;-81
2022/07/13 01:10:47;;;;;;;104.35;51.42;;;;;;;23.24;65.75;99946.28;5076668;28;20181;-80
2022/07/13 01:13:16;;;;;;;95.57;49.33;;;;;;;23.39;65.29;99957.16;5076471;28;20047;-79
2022/07/13 01:15:43;;;;;;;94.55;47.53;;;;;;;23.46;65.31;99955.34;5076749;28;20044;-81
2022/07/13 01:18:13;;;;;;;104.07;43.95;;;;;;;23.47;65.00;99951.59;5076676;28;20040;-79
2022/07/13 01:20:42;;;;;;;101.05;46.20;;;;;;;23.33;65.05;99952.47;5076541;28;20133;-80
2022/07/13 01:23:18;;;;;;;86.90;44.92;;;;;;;22.98;66.07;99963.13;5059695;28;20040;-80
2022/07/13 01:25:45;;;;;;;112.68;46.63;;;;;;;22.77;67.16;99965.72;5094784;28;20044;-81
2022/07/13 01:28:13;;;;;;;120.00;39.35;;;;;;;22.69;67.65;99968.53;5076628;28;20389;-80
2022/07/13 01:30:39;;;;;;;;;;;;;;;22.51;68.47;99961.53;5094769;28;20072;-79
2022/07/13 01:33:05;;;;;;;112.72;35.42;;;;;;;22.52;68.41;99965.94;5059277;28;20427;-79
2022/07/13 01:35:31;;;;;;;119.93;32.60;;;;;;;22.61;68.25;99955.00;5059382;28;20040;-79
2022/07/13 01:37:57;;;;;;;88.90;33.28;;;;;;;22.78;67.98;99959.22;5094141;28;20060;-80
2022/07/13 01:40:23;;;;;;;82.88;32.42;;;;;;;23.00;67.33;99960.19;5094020;28;20097;-82
2022/07/13 01:42:51;;;;;;;81.40;31.73;;;;;;;23.10;66.54;99955.31;5094069;28;20044;-81
2022/07/13 01:45:18;;;;;;;;;;;;;;;23.28;66.36;99963.09;5043077;28;20085;-80
2022/07/13 01:47:47;;;;;;;86.53;28.52;;;;;;;23.39;66.64;99965.31;5076367;28;19945;-80
2022/07/13 01:50:16;;;;;;;90.20;30.08;;;;;;;23.58;65.54;99965.75;5042831;28;20059;-80
2022/07/13 01:52:42;;;;;;;93.63;30.38;;;;;;;23.56;65.29;99956.94;5057987;28;20627;-80
2022/07/13 01:55:10;;;;;;;99.57;31.23;;;;;;;23.41;65.17;99949.63;5093669;28;20491;-79
2022/07/13 01:57:37;;;;;;;95.50;32.60;;;;;;;23.30;65.64;99944.66;5059167;28;20040;-80
2022/07/13 02:00:10;;;;;;;92.28;33.78;;;;;;;23.39;65.93;99951.69;5042215;28;20044;-80
2022/07/13 02:02:40;;;;;;;93.88;32.85;;;;;;;23.50;66.14;99943.00;5076461;28;20093;-82
2022/07/13 02:05:10;;;;;;;87.88;32.50;;;;;;;23.72;65.66;99946.66;5043119;28;20084;-81
2022/07/13 02:07:38;;;;;;;;;;;;;;;23.92;65.26;99944.16;5075767;28;20055;-81
2022/07/13 02:10:05;;;;;;;76.50;31.83;;;;;;;24.05;64.69;99942.59;5058738;28;19956;-81
2022/07/13 02:12:31;;;;;;;67.20;31.35;;;;;;;24.11;64.61;99939.06;5058701;28;20097;-81
2022/07/13 02:14:59;;;;;;;81.38;32.78;;;;;;;24.20;64.45;99940.63;5058975;28;20036;-80
2022/07/13 02:17:25;;;;;;;72.05;31.92;;;;;;;24.33;64.01;99940.72;5075087;28;20515;-80
2022/07/13 02:19:51;;;;;;;71.10;30.23;;;;;;;24.40;63.43;99943.53;5075154;28;20048;-80
2022/07/13 02:22:17;;;;;;;75.20;30.60;;;;;;;24.46;62.99;99942.75;5058556;28;20406;-80
2022/07/13 02:24:44;;;;;;;77.03;30.17;;;;;;;24.57;62.71;99942.22;5058382;28;20040;-81
2022/07/13 02:27:12;;;;;;;84.47;28.02;;;;;;;24.66;62.51;99934.69;5042079;28;20402;-80
2022/07/13 02:29:38;;;;;;;82.32;31.15;;;;;;;24.83;62.09;99947.03;5075191;28;20050;-80
2022/07/13 02:32:06;;;;;;;87.10;37.53;;;;;;;24.90;61.87;99931.50;5057950;28;20047;-81
2022/07/13 02:34:32;;;;;;;57.60;27.13;;;;;;;24.99;61.30;99942.28;5093018;28;20530;-83
2022/07/13 02:36:58;;;;;;;54.28;23.30;;;;;;;25.03;60.98;99941.66;5093835;28;20056;-81
2022/07/13 02:39:24;;;;;;;46.03;21.67;;;;;;;25.11;60.78;99948.88;5058585;28;20126;-79
2022/07/13 02:41:50;;;;;;;43.08;19.58;;;;;;;25.08;60.33;99930.94;5075915;28;20035;-82
2022/07/13 02:44:17;;;;;;;48.53;18.75;;;;;;;25.15;59.92;99944.69;5075640;28;20075;-81
2022/07/13 02:46:43;;;;;;;38.08;17.80;;;;;;;25.05;60.01;99935.97;5075773;28;20086;-80
2022/07/13 02:49:09;;;;;;;43.60;17.30;;;;;;;25.19;59.57;99946.81;5075892;28;20044;-79
2022/07/13 02:51:36;;;;;;;35.03;16.50;;;;;;;25.27;59.20;99942.22;5058501;28;20051;-79
2022/07/13 02:54:03;;;;;;;36.22;16.33;;;;;;;25.25;58.71;99934.25;5075023;28;20044;-80
2022/07/13 02:56:30;;;;;;;39.42;17.25;;;;;;;25.42;58.58;99934.72;5074621;28;20047;-81
2022/07/13 02:58:56;;;;;;;53.58;21.92;;;;;;;25.58;58.36;99947.22;5074742;28;20043;-79
2022/07/13 03:01:22;;;;;;;36.58;18.17;;;;;;;25.70;57.96;99940.09;5075110;28;20046;-81
2022/07/13 03:03:48;;;;;;;28.75;17.92;;;;;;;25.66;57.68;99928.69;5059698;28;20036;-81
2022/07/13 03:06:14;;;;;;;39.13;18.33;;;;;;;25.82;57.64;99938.44;5079285;28;20048;-78
2022/07/13 03:08:40;;;;;;;58.50;23.58;;;;;;;25.92;57.99;99941.63;5061792;28;20043;-82
2022/07/13 03:11:06;;;;;;;40.33;20.05;;;;;;;25.88;57.65;99934.91;5062323;28;20075;-80
2022/07/13 03:13:33;;;;;;;25.13;13.63;;;;;;;25.92;56.79;99933.41;5062316;28;20059;-83
2022/07/13 03:15:59;;;;;;;24.80;13.93;;;;;;;26.09;56.71;99938.50;5079080;28;20130;-84
2022/07/13 03:18:25;;;;;;;18.52;11.45;;;;;;;26.17;54.93;99943.75;5078868;28;20050;-83
2022/07/13 03:20:50;;;;;;;15.85;10.68;;;;;;;26.18;54.75;99942.72;5061998;28;20083;-81
2022/07/13 03:23:16;;;;;;;15.00;10.90;;;;;;;26.11;54.13;99933.66;5062542;28;20517;-82
2022/07/13 03:25:42;;;;;;;16.35;10.40;;;;;;;26.15;53.77;99940.41;5062096;28;20044;-83
2022/07/13 03:28:09;;;;;;;14.80;10.43;;;;;;;26.13;53.47;99943.34;5062140;28;20044;-81
2022/07/13 03:30:36;;;;;;;13.90;9.77;;;;;;;26.28;52.61;99940.41;5078347;28;20517;-80
2022/07/13 03:33:01;;;;;;;15.98;10.32;;;;;;;26.31;52.59;99929.00;5061824;28;20055;-84
2022/07/13 03:35:27;;;;;;;12.07;10.38;;;;;;;26.38;52.57;99938.09;5047532;28;20036;-83
2022/07/13 03:37:53;;;;;;;27.52;10.27;;;;;;;26.44;51.96;99935.53;5081240;28;20080;-87
2022/07/13 03:40:24;;;;;;;15.05;9.77;;;;;;;26.53;51.90;99932.41;5058989;28;20036;-81
2022/07/13 03:42:50;;;;;;;16.35;10.25;;;;;;;26.65;51.93;99935.34;5075625;28;20131;-82
2022/07/13 03:45:16;;;;;;;14.68;10.25;;;;;;;26.76;50.96;99937.44;5075648;28;20072;-84
2022/07/13 03:47:42;;;;;;;15.80;9.35;;;;;;;26.70;50.81;99934.69;5054406;28;20127;-90
2022/07/13 03:50:09;;;;;;;15.60;8.98;;;;;;;26.69;50.81;99941.25;5036529;28;20542;-91
2022/07/13 03:52:34;;;;;;;20.20;9.95;;;;;;;26.78;51.03;99932.59;5054814;28;20033;-82
2022/07/13 03:55:01;;;;;;;22.52;9.52;;;;;;;26.90;51.49;99937.44;5054900;28;20040;-85
2022/07/13 03:57:28;;;;;;;18.08;9.52;;;;;;;26.97;51.24;99933.63;5055112;28;20049;-85
2022/07/13 03:59:54;;;;;;;21.50;9.23;;;;;;;27.09;51.11;99920.06;5038157;28;20522;-83
2022/07/13 04:02:20;;;;;;;14.07;8.45;;;;;;;27.20;50.54;99932.31;5038118;28;20040;-89
2022/07/13 04:04:46;;;;;;;14.85;8.48;;;;;;;27.23;50.27;99916.25;5022497;28;20051;-90
2022/07/13 04:07:13;;;;;;;23.70;9.20;;;;;;;27.41;50.50;99932.00;5056475;28;20098;-81
2022/07/13 04:09:39;;;;;;;10.73;8.57;;;;;;;27.41;50.57;99931.16;5054277;28;20041;-81
2022/07/13 04:12:05;;;;;;;20.10;8.20;;;;;;;27.55;49.47;99932.78;5054697;28;20446;-87
2022/07/13 04:14:32;;;;;;;20.95;8.27;;;;;;;27.36;49.08;99929.91;5054280;28;20045;-82
2022/07/13 04:16:58;;;;;;;19.15;8.32;;;;;;;27.45;49.71;99921.41;5036419;28;20134;-83
2022/07/13 04:19:25;;;;;;;14.80;8.25;;;;;;;27.57;49.35;99916.94;5037947;28;20045;-80
2022/07/13 04:21:56;;;;;;;12.52;7.95;;;;;;;27.71;49.53;99923.19;5079423;28;20114;-83
2022/07/13 04:24:23;;;;;;;16.00;7.55;;;;;;;27.79;49.20;99920.19;5077548;28;20044;-80
2022/07/13 04:26:49;;;;;;;17.00;8.02;;;;;;;27.81;48.88;99918.91;5093911;28;20040;-81
2022/07/13 04:29:15;;;;;;;15.05;7.82;;;;;;;27.87;48.76;99919.09;5077057;28;20513;-81
2022/07/13 04:31:41;;;;;;;12.93;7.97;;;;;;;27.97;49.06;99919.44;5059912;28;20048;-81
2022/07/13 04:34:07;;;;;;;12.43;7.90;;;;;;;28.11;48.25;99920.19;5093568;28;20125;-81
2022/07/13 04:36:35;;;;;;;13.82;8.35;;;;;;;28.27;48.66;99917.72;5078140;28;20051;-79
2022/07/13 04:39:02;;;;;;;9.30;8.07;;;;;;;28.36;47.65;99912.81;5063643;28;20451;-79
2022/07/13 04:41:30;;;;;;;13.90;8.00;;;;;;;28.57;47.74;99922.56;5079966;28;20047;-77
2022/07/13 04:43:56;;;;;;;17.83;7.97;;;;;;;28.72;47.25;99920.31;5097400;28;20051;-83
2022/07/13 04:46:24;;;;;;;12.15;8.07;;;;;;;28.69;47.08;99908.91;5080097;28;20051;-84
2022/07/13 04:48:51;;;;;;;14.32;7.95;;;;;;;28.78;47.17;99913.06;5096763;28;20138;-79
2022/07/13 04:51:17;;;;;;;11.25;7.45;;;;;;;28.89;46.77;99919.72;5062348;28;20036;-78
2022/07/13 04:53:46;;;;;;;11.30;7.40;;;;;;;28.98;46.85;99919.22;5096810;28;20040;-79
2022/07/13 04:56:12;;;;;;;17.90;7.75;;;;;;;28.99;45.95;99911.78;5080282;28;20092;-81
2022/07/13 04:58:39;;;;;;;8.07;7.32;;;;;;;29.07;45.75;99919.75;5071971;28;20456;-82
2022/07/13 05:01:06;;;;;;;8.07;7.28;;;;;;;29.03;45.19;99918.53;5065458;28;20074;-81
2022/07/13 05:03:33;;;;;;;15.13;7.63;;;;;;;29.06;46.18;99919.97;5052149;28;20150;-79
2022/07/13 05:06:00;;;;;;;13.20;7.30;;;;;;;29.08;45.08;99907.69;5094350;28;20055;-78
2022/07/13 05:08:26;;;;;;;13.32;7.22;;;;;;;29.12;45.28;99919.91;5060209;28;20071;-79
2022/07/13 05:10:53;;;;;;;12.07;7.60;;;;;;;29.15;45.86;99913.09;5059660;28;20044;-80
2022/07/13 05:13:20;;;;;;;12.18;7.63;;;;;;;29.24;44.89;99911.72;5057961;28;20495;-83
2022/07/13 05:15:48;;;;;;;11.10;7.80;;;;;;;29.11;45.26;99909.09;5065473;28;20195;-81
2022/07/13 05:18:15;;;;;;;13.98;7.95;;;;;;;29.08;45.73;99913.19;5057043;28;20514;-82
2022/07/13 05:20:41;;;;;;;15.18;7.43;;;;;;;28.99;45.43;99914.53;5056564;28;20048;-81
2022/07/13 05:23:07;;;;;;;13.18;7.05;;;;;;;29.07;45.73;99916.97;5023582;28;20040;-81
2022/07/13 05:25:35;;;;;;;10.55;7.32;;;;;;;29.12;45.81;99908.06;5056950;28;20049;-81
2022/07/13 05:28:01;;;;;;;12.55;7.13;;;;;;;29.37;45.14;99911.53;5039640;28;20064;-79
2022/07/13 05:30:28;;;;;;;11.45;7.97;;;;;;;29.39;44.71;99906.66;5046157;28;20036;-79
2022/07/13 05:32:55;;;;;;;12.27;7.72;;;;;;;29.31;44.90;99912.47;5076629;28;20551;-80
2022/07/13 05:35:21;;;;;;;10.23;7.53;;;;;;;29.39;44.86;99911.31;5082285;28;20041;-82
2022/07/13 05:37:47;;;;;;;8.05;7.28;;;;;;;29.41;44.78;99906.41;5052479;28;20155;-81
2022/07/13 05:40:13;;;;;;;10.68;7.85;;;;;;;29.57;44.77;99905.78;5035667;28;20055;-83
2022/07/13 05:42:40;;;;;;;12.68;8.00;;;;;;;29.63;44.60;99890.25;5052908;28;20131;-82
2022/07/13 05:45:07;;;;;;;13.30;7.70;;;;;;;29.82;44.43;99902.88;5036332;28;20514;-81
2022/07/13 05:47:33;;;;;;;9.45;7.63;;;;;;;29.84;44.39;99900.75;5053518;28;20049;-82
2022/07/13 05:49:59;;;;;;;13.45;8.25;;;;;;;29.92;44.91;99896.81;5054666;28;20052;-81
2022/07/13 05:52:28;;;;;;;14.60;8.32;;;;;;;30.14;44.26;99897.94;5037612;28;20041;-83
2022/07/13 05:54:54;;;;;;;15.30;7.60;;;;;;;30.26;44.08;99897.13;5042906;28;20132;-81
2022/07/13 05:57:21;;;;;;;11.57;8.75;;;;;;;30.28;44.19;99897.72;5036782;28;20108;-81
2022/07/13 05:59:46;;;;;;;11.13;7.88;;;;;;;30.32;44.43;99894.28;5071027;28;20115;-82
2022/07/13 06:02:12;;;;;;;15.70;8.15;;;;;;;30.44;44.52;99892.34;5072876;28;20044;-82
2022/07/13 06:04:38;;;;;;;12.13;7.78;;;;;;;30.59;44.77;99891.88;5069820;28;20131;-82
2022/07/13 06:07:04;;;;;;;13.45;8.38;;;;;;;30.82;44.13;99887.44;5070033;28;20032;-80
2022/07/13 06:09:30;;;;;;;12.88;8.18;;;;;;;30.70;43.85;99882.75;5054460;28;20044;-82
2022/07/13 06:11:55;;;;;;;13.55;8.07;;;;;;;30.87;44.00;99887.56;5037701;28;20041;-85
2022/07/13 06:14:21;;;;;;;16.88;8.07;;;;;;;31.14;43.62;99883.19;5071037;28;20545;-82
2022/07/13 06:16:47;;;;;;;10.02;8.20;;;;;;;31.34;42.92;99881.94;5073338;28;20051;-82
2022/07/13 06:19:13;;;;;;;8.55;7.65;;;;;;;31.18;42.72;99878.84;5072375;28;20418;-79
2022/07/13 06:21:39;;;;;;;16.95;8.00;;;;;;;31.40;42.34;99881.78;5073065;28;20068;-78
2022/07/13 06:24:05;;;;;;;10.95;7.57;;;;;;;31.40;42.74;99876.25;5055429;28;20048;-79
2022/07/13 06:26:31;;;;;;;15.15;7.65;;;;;;;31.49;42.16;99884.19;5071763;28;20076;-79
2022/07/13 06:28:57;;;;;;;15.80;7.97;;;;;;;31.45;42.20;99878.31;5071947;28;20082;-78
2022/07/13 06:31:23;;;;;;;12.93;7.22;;;;;;;31.61;41.27;99871.97;5072732;28;20127;-78
2022/07/13 06:33:51;;;;;;;15.93;7.40;;;;;;;31.72;41.25;99886.00;5072796;28;20052;-79
2022/07/13 06:36:18;;;;;;;9.25;7.70;;;;;;;31.71;40.99;99885.16;5054908;28;20043;-78
2022/07/13 06:38:44;;;;;;;11.88;8.00;;;;;;;31.65;41.07;99886.13;5068041;28;20067;-78
2022/07/13 06:41:10;;;;;;;9.98;7.43;;;;;;;31.63;41.58;99883.63;5058457;28;20040;-78
2022/07/13 06:43:36;;;;;;;11.25;7.47;;;;;;;31.95;41.17;99888.66;5057833;28;20040;-80
2022/07/13 06:46:01;;;;;;;11.20;7.38;;;;;;;32.19;40.67;99882.94;5058103;28;20047;-81
2022/07/13 06:48:27;;;;;;;10.20;7.47;;;;;;;32.25;40.99;99884.72;5086284;28;20033;-81
2022/07/13 06:50:53;;;;;;;13.40;7.45;;;;;;;32.43;40.56;99878.13;5058019;28;20490;-80
2022/07/13 06:53:19;;;;;;;11.93;7.65;;;;;;;32.62;39.90;99877.59;5051961;28;20118;-78
2022/07/13 06:55:45;;;;;;;11.90;7.40;;;;;;;32.46;39.37;99872.94;5042132;28;20150;-80
2022/07/13 06:58:11;;;;;;;10.10;7.50;;;;;;;32.15;39.68;99888.97;5053683;28;20042;-80
2022/07/13 07:00:36;;;;;;;16.50;8.23;;;;;;;32.03;40.21;99882.69;5039389;28;20055;-80
2022/07/13 07:03:03;;;;;;;14.38;7.45;;;;;;;32.24;39.63;99885.81;5037629;28;20072;-80
2022/07/13 07:05:28;;;;;;;10.35;7.45;;;;;;;32.47;39.62;99871.81;5060641;28;20055;-80
2022/07/13 07:07:54;;;;;;;11.07;7.35;;;;;;;32.74;39.54;99879.41;5070559;28;20040;-80
2022/07/13 07:10:20;;;;;;;9.75;7.50;;;;;;;32.94;38.64;99881.63;5092910;28;20067;-80
2022/07/13 07:12:46;;;;;;;13.65;7.45;;;;;;;33.01;38.50;99880.34;5074942;28;20064;-79
2022/07/13 07:15:12;;;;;;;12.05;7.65;;;;;;;33.05;38.28;99878.75;5056946;28;20081;-80
2022/07/13 07:17:46;;;;;;;15.82;7.60;;;;;;;33.19;38.16;99881.13;5065619;28;20051;-78
2022/07/13 07:20:13;;;;;;;10.48;7.82;;;;;;;33.27;37.89;99878.72;5022214;28;20053;-78
2022/07/13 07:22:39;;;;;;;10.48;7.72;;;;;;;33.36;38.06;99881.88;5054914;28;20040;-78
2022/07/13 07:25:07;;;;;;;15.73;7.43;;;;;;;33.46;38.61;99881.16;5054325;28;20053;-79
2022/07/13 07:27:33;;;;;;;10.45;7.68;;;;;;;33.61;38.15;99878.59;5072604;28;20090;-79
2022/07/13 07:29:59;;;;;;;11.02;6.78;;;;;;;33.77;37.29;99882.34;5054383;28;20037;-78
2022/07/13 07:32:24;;;;;;;10.68;7.05;;;;;;;33.98;36.39;99887.03;5072210;28;20118;-79
2022/07/13 07:34:50;;;;;;;7.90;7.15;;;;;;;33.98;35.42;99877.84;5038003;28;20075;-79
2022/07/13 07:37:20;;;;;;;9.50;7.53;;;;;;;33.83;36.27;99871.03;5020932;28;20414;-78
2022/07/13 07:39:46;;;;;;;10.63;7.45;;;;;;;33.65;36.81;99874.19;5072275;28;20083;-81
2022/07/13 07:42:12;;;;;;;14.82;7.20;;;;;;;33.81;36.73;99872.41;5072285;28;20044;-79
2022/07/13 07:44:38;;;;;;;12.52;7.53;;;;;;;33.79;36.86;99869.06;5037244;28;20127;-79
2022/07/13 07:47:04;;;;;;;15.57;7.47;;;;;;;33.88;37.08;99873.03;5037478;28;20552;-79
2022/07/13 07:49:30;;;;;;;9.38;7.60;;;;;;;34.26;36.82;99874.75;5037738;28;20490;-80
2022/07/13 07:51:55;;;;;;;8.05;7.00;;;;;;;34.55;35.81;99872.50;5057929;28;20046;-80
2022/07/13 07:54:21;;;;;;;12.25;7.22;;;;;;;34.77;35.82;99868.75;5057465;28;20047;-80
2022/07/13 07:56:48;;;;;;;9.00;7.10;;;;;;;34.89;35.53;99866.56;5041231;28;20076;-79
2022/07/13 07:59:14;;;;;;;14.23;7.05;;;;;;;34.91;34.94;99861.59;5041637;28;20049;-80
2022/07/13 08:01:41;;;;;;;11.00;7.28;;;;;;;34.43;35.37;99865.47;5057779;28;20052;-79
2022/07/13 08:04:07;;;;;;;20.85;8.00;;;;;;;34.08;36.19;99864.94;5024683;28;20087;-80
2022/07/13 08:06:34;;;;;;;10.18;7.38;;;;;;;33.95;36.22;99862.53;5024421;28;20041;-79
2022/07/13 08:09:00;;;;;;;10.35;7.22;;;;;;;33.59;36.26;99865.00;5075225;28;20093;-78
2022/07/13 08:11:26;;;;;;;12.10;7.10;;;;;;;33.93;36.51;99863.94;5075161;28;20048;-79
2022/07/13 08:13:52;;;;;;;11.85;7.07;;;;;;;34.37;35.55;99860.97;5075381;28;20477;-79
2022/07/13 08:16:19;;;;;;;13.40;7.00;;;;;;;34.55;34.57;99850.28;5057398;28;20036;-78
2022/07/13 08:18:45;;;;;;;13.15;7.00;;;;;;;34.60;33.97;99854.19;5075342;28;20117;-78
2022/07/13 08:21:11;;;;;;;8.30;7.28;;;;;;;34.56;34.16;99846.41;5024133;28;20040;-80
2022/07/13 08:23:53;;;;;;;11.63;7.05;;;;;;;34.68;34.42;99859.25;5057446;28;20071;-79
2022/07/13 08:26:24;;;;;;;8.23;6.57;;;;;;;35.11;34.23;99857.25;5057228;28;20452;-78
2022/07/13 08:28:51;;;;;;;9.73;7.25;;;;;;;35.32;33.45;99833.13;5075389;28;20127;-81
2022/07/13 08:31:20;;;;;;;9.57;6.95;;;;;;;35.40;33.90;99849.31;5057367;28;20057;-80
2022/07/13 08:39:17;;;;;;;7.25;6.40;;;;;;;35.50;33.40;99844.59;5056926;28;20188;-78
2022/07/13 08:41:46;;;;;;;11.30;6.32;;;;;;;35.26;34.29;99843.41;5057094;28;20146;-79
2022/07/13 08:44:12;;;;;;;8.77;7.28;;;;;;;35.59;33.99;99847.69;5040308;28;20076;-80
2022/07/13 08:46:39;;;;;;;8.93;6.75;;;;;;;36.06;33.91;99845.81;5023702;28;20378;-80
2022/07/13 08:49:05;;;;;;;8.20;7.03;;;;;;;36.34;33.71;99845.22;5056871;28;20047;-79
2022/07/13 08:51:32;;;;;;;11.05;6.70;;;;;;;36.74;32.52;99845.44;5040365;28;20495;-80
2022/07/13 08:53:59;;;;;;;13.02;6.43;;;;;;;36.67;32.18;99841.03;5075617;28;20043;-79
2022/07/13 08:56:26;;;;;;;8.30;6.38;;;;;;;36.58;32.88;99839.09;5060123;28;20524;-87
2022/07/13 08:58:55;;;;;;;10.15;6.60;;;;;;;36.27;32.51;99829.94;5060258;28;20036;-79
2022/07/13 09:01:21;;;;;;;10.10;6.80;;;;;;;36.54;33.03;99840.75;5065012;28;20044;-78
2022/07/13 09:03:47;;;;;;;7.40;6.40;;;;;;;36.68;32.94;99830.72;5060503;28;20425;-77
2022/07/13 09:06:38;;;;;;;14.63;6.70;;;;;;;37.09;32.04;99830.56;5059846;28;20082;-78
2022/07/13 09:09:08;;;;;;;10.05;6.35;;;;;;;37.33;31.16;99831.53;5059978;28;20036;-78
2022/07/13 09:11:34;;;;;;;7.68;6.30;;;;;;;37.18;30.58;99828.84;5059807;28;20071;-78
2022/07/13 09:14:00;;;;;;;8.48;6.35;;;;;;;37.24;30.15;99827.69;5094826;28;20044;-78
2022/07/13 09:16:28;;;;;;;8.38;6.00;;;;;;;37.34;30.56;99827.63;5075834;28;20059;-79
2022/07/13 09:18:59;;;;;;;8.68;6.43;;;;;;;37.46;30.27;99823.69;5043364;28;20858;-78
2022/07/13 09:21:27;;;;;;;9.93;6.25;;;;;;;37.58;29.88;99815.81;5062131;28;20466;-79
2022/07/13 09:23:57;;;;;;;14.20;6.72;;;;;;;37.63;29.73;99808.22;5039063;28;20053;-78
2022/07/13 09:26:39;;;;;;;10.75;6.30;;;;;;;37.23;29.66;99805.66;5039277;28;20495;-80
2022/07/13 09:29:05;;;;;;;8.13;6.05;;;;;;;36.86;29.25;99806.94;5073812;28;20440;-78
2022/07/13 09:31:31;;;;;;;8.93;6.30;;;;;;;36.46;29.43;99790.09;5055258;28;20041;-78
2022/07/13 09:33:57;;;;;;;10.35;5.88;;;;;;;36.16;29.29;99799.31;5074533;28;20391;-77
2022/07/13 09:36:24;;;;;;;10.55;6.10;;;;;;;36.53;30.12;99789.81;5066847;28;20467;-78
2022/07/13 09:38:51;;;;;;;11.35;5.65;;;;;;;37.22;29.78;99782.53;5038888;28;20070;-78
2022/07/13 09:41:25;;;;;;;8.98;5.80;;;;;;;37.65;28.91;99800.41;5038921;28;20040;-78
2022/07/13 09:47:00;;;;;;;8.52;5.90;;;;;;;38.28;29.39;99796.78;5057985;28;20415;-78
2022/07/13 09:49:44;;;;;;;6.22;5.63;;;;;;;38.89;28.72;99786.88;5022437;28;20051;-83
2022/07/13 09:52:16;;;;;;;10.68;6.10;;;;;;;38.96;27.35;99778.16;5038832;28;20048;-77
2022/07/13 09:54:44;;;;;;;7.75;5.75;;;;;;;38.27;28.16;99781.16;5055171;28;20125;-78
2022/07/13 09:57:13;;;;;;;10.95;6.10;;;;;;;38.03;28.97;99786.72;5038316;28;20633;-78
2022/07/13 09:59:41;;;;;;;11.75;6.05;;;;;;;38.42;28.28;99768.19;5037675;28;20048;-79
2022/07/13 10:02:07;;;;;;;12.95;6.00;;;;;;;38.64;27.88;99774.06;5055244;28;20048;-78
2022/07/13 10:04:35;;;;;;;9.52;5.55;;;;;;;38.38;26.89;99774.38;5064619;28;20044;-79
2022/07/13 10:07:02;;;;;;;18.90;5.63;;;;;;;38.68;27.28;99766.75;5093095;28;20139;-78
2022/07/13 10:09:32;;;;;;;7.90;5.45;;;;;;;39.09;27.48;99766.22;5041423;28;20054;-77
2022/07/13 10:11:59;;;;;;;7.55;5.65;;;;;;;38.88;26.99;99762.06;5058617;28;20044;-78
2022/07/13 10:14:26;;;;;;;8.65;5.57;;;;;;;39.30;26.54;99762.00;5073975;28;20036;-83
2022/07/13 10:17:00;;;;;;;8.65;5.28;;;;;;;39.91;25.60;99760.22;5075529;28;20064;-78
2022/07/13 10:19:28;;;;;;;8.07;5.45;;;;;;;39.98;25.18;99759.78;5076835;28;20494;-82
2022/07/13 10:22:00;;;;;;;5.90;5.30;;;;;;;40.03;24.46;99752.13;5077392;28;20036;-80
2022/07/13 10:24:28;;;;;;;9.80;5.50;;;;;;;40.50;24.44;99757.69;5042131;28;20040;-78
2022/07/13 10:27:27;;;;;;;6.65;5.18;;;;;;;40.45;24.08;99746.59;5086804;28;20090;-76
2022/07/13 10:29:53;;;;;;;7.30;5.10;;;;;;;40.61;24.34;99741.53;5072306;28;20040;-76
2022/07/13 10:32:28;;;;;;;9.63;5.13;;;;;;;41.15;23.44;99743.44;5080725;28;20112;-77
2022/07/13 10:34:58;;;;;;;7.07;4.93;;;;;;;41.13;22.38;99737.31;5039619;28;20309;-77
2022/07/13 10:37:26;;;;;;;9.45;4.63;;;;;;;40.52;22.91;99735.81;5021388;28;20059;-80
2022/07/13 10:40:13;;;;;;;7.07;5.10;;;;;;;40.01;23.79;99736.78;5072697;28;20070;-77
2022/07/13 10:43:05;;;;;;;;;;;;;;;39.70;24.71;99734.53;5037900;28;20041;-77
2022/07/13 10:45:48;;;;;;;6.35;5.22;;;;;;;39.66;25.69;99735.44;5069881;28;19920;-77
2022/07/13 10:48:18;;;;;;;6.03;5.25;;;;;;;40.00;24.98;99723.94;5056100;28;20071;-76
2022/07/13 10:50:58;;;;;;;5.38;4.68;;;;;;;40.44;23.55;99725.34;5038861;28;20052;-77
2022/07/13 10:53:40;;;;;;;8.80;5.10;;;;;;;40.57;23.82;99718.91;5021773;28;20044;-76
2022/07/13 10:56:17;;;;;;;6.20;5.07;;;;;;;40.23;23.56;99722.94;5037679;28;20073;-77
2022/07/13 10:58:44;;;;;;;8.82;5.40;;;;;;;40.21;24.42;99719.63;5072331;28;20181;-77
2022/07/13 11:01:29;;;;;;;;;;;;;;;40.49;25.08;99725.22;5041725;28;20051;-77
2022/07/13 11:03:55;;;;;;;10.52;5.68;;;;;;;40.38;24.99;99719.00;5058230;28;19916;-78
2022/07/13 11:06:25;;;;;;;11.70;5.95;;;;;;;39.94;24.92;99705.56;5074785;28;20051;-78
2022/07/13 11:09:06;;;;;;;10.25;5.55;;;;;;;39.67;25.17;99715.53;5041369;28;20127;-78
2022/07/13 11:11:32;;;;;;;10.25;5.70;;;;;;;39.29;25.90;99715.59;5074645;28;20494;-77
2022/07/13 11:13:58;;;;;;;10.02;5.25;;;;;;;38.79;26.98;99708.78;5074427;28;20048;-75
2022/07/13 11:16:45;;;;;;;8.88;5.07;;;;;;;38.56;25.77;99713.28;5074394;28;20048;-77
2022/07/13 11:19:11;;;;;;;9.25;5.32;;;;;;;38.27;26.19;99707.72;5075090;28;20089;-77
2022/07/13 11:22:11;;;;;;;10.13;5.40;;;;;;;38.93;26.41;99709.72;5041595;28;20040;-77
2022/07/13 11:27:46;;;;;;;12.25;5.60;;;;;;;38.90;26.49;99720.66;5078680;28;20449;-77
2022/07/13 11:30:13;;;;;;;14.13;5.68;;;;;;;38.75;26.82;99719.72;5078526;28;20067;-77
2022/07/13 11:32:41;;;;;;;9.48;5.50;;;;;;;38.63;26.66;99705.34;5078321;28;20070;-77
2022/07/13 11:35:07;;;;;;;12.13;5.73;;;;;;;39.37;26.00;99713.25;5078319;28;20050;-77
2022/07/13 11:37:34;;;;;;;13.88;5.75;;;;;;;40.19;25.01;99716.31;5077897;28;20091;-77